Accueil
METAR-TAF:

METAR-TAF

Aéroports :

Melun, France

Aérodrome de Melun-Villaroche

latitude: 48-37N, longitude: 002-41E, altitude: 95 m

Observation

Le bulletin a été fait il y a 29 minutes, à 02:00 UTC
Vent 13 kt de sud/sud-ouest
Température 8°C
Humidité 87%
Pression 1005 hPa
Visibilité 10 km ou plus
Nuages fragmentés à une hauteur de 1900 ft
Ciel couvert à une hauteur de 2500 ft

METAR: LFPM 010200Z AUTO 20013KT 9999 BKN019 OVC025 08/06 Q1005

Heure: 04:29 (02:29 UTC)


TAF: absent

Observations et prévisions météorologiques de plus de 4000 aéroports (messages METAR et TAF).

Les stations disponibles sont représentées par des disques jaunes et rouges sur la carte.

Passer la souris dessus pour voir le nom de la station.

Cliquer dessus pour voir les observations et prévisions météorologiques.

Pour changer de carte: cliquez sur les boutons verts avec une croix noire pour zoomer, sur le bouton vert avec un tiret pour effectuer un zoom arrière, ou sur les flèches vertes pour les cartes adjacentes.


METAR-TAF: